Time;durP1;ratioP1;P1;durP2;ratioP2;P2;SDS_P1;SDS_P2;PMS_P1;PMS_P2;Temp;Humidity;BMP_temperature;BMP_pressure;BME280_temperature;BME280_humidity;BME280_pressure;Samples;Min_cycle;Max_cycle;Signal;HPM_P1;HPM_P2
2022/02/05 00:03:27;;;;;;;13.20;8.40;;;;;;;6.21;67.09;99374.25;111235;1247;21943;-75
2022/02/05 00:06:01;;;;;;;10.50;6.60;;;;;;;6.24;67.07;99375.98;111030;1248;22008;-74
2022/02/05 00:40:07;;;;;;;9.30;5.60;;;;;;;6.43;66.36;99377.21;110989;1247;22003;-75
2022/02/05 00:42:42;;;;;;;7.90;5.70;;;;;;;6.43;66.34;99379.74;111226;1247;21986;-76
2022/02/05 00:45:13;;;;;;;8.70;6.60;;;;;;;6.44;66.32;99372.73;110985;1247;21952;-75
2022/02/05 00:47:46;;;;;;;6.70;5.20;;;;;;;6.46;66.40;99375.34;111008;1248;23681;-76
2022/02/05 00:50:21;;;;;;;8.70;5.20;;;;;;;6.45;66.39;99373.70;110977;1247;22987;-75
2022/02/05 00:53:04;;;;;;;7.30;5.70;;;;;;;6.46;66.49;99374.16;110611;1254;21992;-75
2022/02/05 00:55:40;;;;;;;6.80;5.30;;;;;;;6.48;66.64;99371.79;110587;1254;22737;-75
2022/02/05 00:58:15;;;;;;;8.70;5.20;;;;;;;6.50;66.67;99368.48;110541;1254;21991;-76
2022/02/05 01:00:44;;;;;;;6.10;5.40;;;;;;;6.51;66.77;99362.86;110496;1254;22035;-75
2022/02/05 01:03:15;;;;;;;8.00;5.30;;;;;;;6.51;66.82;99359.35;110504;1254;23744;-75
2022/02/05 01:05:44;;;;;;;6.90;5.30;;;;;;;6.52;66.76;99362.30;110493;1254;22133;-77
2022/02/05 01:08:18;;;;;;;7.90;5.50;;;;;;;6.50;66.75;99363.75;110624;1254;22000;-75
2022/02/05 01:10:50;;;;;;;7.20;4.90;;;;;;;6.48;66.81;99362.21;110480;1254;22053;-76
2022/02/05 01:13:22;;;;;;;6.20;4.80;;;;;;;6.45;66.94;99357.77;110529;1254;22056;-75
2022/02/05 01:18:48;;;;;;;6.90;5.60;;;;;;;6.42;67.05;99348.91;110769;1248;21974;-75
2022/02/05 01:26:34;;;;;;;6.00;5.20;;;;;;;6.44;67.22;99339.17;111219;1247;21969;-75
2022/02/05 01:29:20;;;;;;;7.60;4.90;;;;;;;6.41;67.34;99337.37;111062;1247;22439;-74
2022/02/05 01:31:54;;;;;;;7.50;5.70;;;;;;;6.41;67.66;99340.78;110846;1247;23505;-75
2022/02/05 01:34:44;;;;;;;5.10;4.30;;;;;;;6.42;67.91;99339.52;110794;1247;22660;-75
2022/02/05 01:57:05;;;;;;;5.30;4.20;;;;;;;6.49;68.33;99330.98;110652;1254;22472;-76
2022/02/05 02:05:26;;;;;;;4.70;3.80;;;;;;;6.43;68.25;99342.80;111023;1247;21923;-76
2022/02/05 02:10:58;;;;;;;4.80;3.10;;;;;;;6.44;68.34;99348.52;110987;1250;21961;-75
2022/02/05 02:16:36;;;;;;;4.50;3.30;;;;;;;6.51;68.24;99350.34;110929;1247;21952;-76
2022/02/05 02:21:55;;;;;;;8.80;2.80;;;;;;;6.56;68.27;99402.27;111013;1247;21960;-76
2022/02/05 02:32:14;;;;;;;2.20;1.00;;;;;;;5.96;67.68;99472.55;111227;1247;22043;-76
2022/02/05 02:34:50;;;;;;;1.30;0.90;;;;;;;5.83;68.03;99478.85;111271;1246;22049;-76
2022/02/05 02:37:27;;;;;;;1.30;0.80;;;;;;;5.73;68.32;99499.27;110977;1247;23580;-76
2022/02/05 02:42:48;;;;;;;0.90;0.50;;;;;;;5.50;68.32;99519.71;111300;1247;21959;-75
2022/02/05 02:45:18;;;;;;;1.30;0.90;;;;;;;5.41;68.42;99538.84;111013;1247;23631;-74
2022/02/05 02:47:47;;;;;;;2.10;1.10;;;;;;;5.32;68.23;99550.55;110972;1247;23680;-76
2022/02/05 02:50:33;;;;;;;0.80;0.50;;;;;;;5.22;67.87;99554.48;111220;1247;23664;-75
2022/02/05 02:59:10;;;;;;;1.70;0.70;;;;;;;4.85;67.14;99582.05;110410;1256;21963;-78
2022/02/05 03:01:42;;;;;;;1.20;0.70;;;;;;;4.73;67.01;99588.95;110676;1254;21976;-76
2022/02/05 03:04:12;;;;;;;0.50;0.40;;;;;;;4.60;66.88;99616.89;110361;1257;21965;-76
2022/02/05 03:06:43;;;;;;;2.40;0.90;;;;;;;4.47;66.84;99617.48;110517;1256;21970;-76
2022/02/05 03:09:25;;;;;;;1.70;0.90;;;;;;;4.35;66.84;99622.48;110506;1256;23060;-75
2022/02/05 03:11:54;;;;;;;1.50;0.80;;;;;;;4.29;67.04;99632.79;110298;1257;21987;-75
2022/02/05 03:14:27;;;;;;;1.50;0.70;;;;;;;4.26;67.11;99639.49;110504;1256;23184;-75
2022/02/05 03:20:15;;;;;;;1.80;0.80;;;;;;;4.22;67.30;99658.03;110172;1256;22119;-76
2022/02/05 03:22:55;;;;;;;1.50;0.70;;;;;;;4.22;67.40;99666.73;110350;1256;23746;-75
2022/02/05 03:25:24;;;;;;;0.90;0.70;;;;;;;4.25;67.33;99673.79;110459;1256;22021;-75
2022/02/05 03:28:06;;;;;;;1.70;0.70;;;;;;;4.24;67.27;99676.46;110484;1256;22164;-76
2022/02/05 03:30:53;;;;;;;2.00;1.10;;;;;;;4.20;67.19;99684.86;110546;1255;22027;-75
2022/02/05 03:33:28;;;;;;;0.90;0.60;;;;;;;4.14;67.22;99695.92;111024;1248;22014;-76
2022/02/05 03:36:03;;;;;;;2.00;0.50;;;;;;;4.09;67.20;99700.17;110971;1247;23690;-75
2022/02/05 03:38:35;;;;;;;;;;;;;;;4.08;67.26;99710.73;111059;1247;23574;-75
2022/02/05 03:41:04;;;;;;;1.60;0.80;;;;;;;4.02;67.35;99718.21;111023;1247;23701;-76
2022/02/05 03:43:33;;;;;;;1.20;0.70;;;;;;;4.01;67.33;99723.18;110969;1248;21965;-76
2022/02/05 03:46:02;;;;;;;1.00;0.60;;;;;;;4.03;67.38;99731.38;111082;1247;22833;-76
2022/02/05 03:48:32;;;;;;;2.60;0.90;;;;;;;4.05;67.40;99730.17;110804;1247;23071;-76
2022/02/05 03:51:01;;;;;;;1.80;0.80;;;;;;;4.03;67.36;99735.42;110936;1248;22726;-76
2022/02/05 03:53:33;;;;;;;1.30;0.70;;;;;;;3.98;67.47;99744.55;111040;1247;21956;-77
2022/02/05 03:56:03;;;;;;;0.80;0.70;;;;;;;3.95;67.42;99750.11;111008;1247;21933;-76
2022/02/05 03:58:32;;;;;;;2.70;0.90;;;;;;;3.89;67.43;99754.51;110558;1250;23055;-75
2022/02/05 04:01:17;;;;;;;0.80;0.60;;;;;;;3.84;67.39;99766.60;110983;1247;21962;-75
2022/02/05 04:04:09;;;;;;;1.60;0.80;;;;;;;3.84;67.53;99775.64;110816;1247;21967;-76
2022/02/05 04:07:10;;;;;;;3.40;1.60;;;;;;;3.85;67.58;99783.42;110624;1248;411375;-75
2022/02/05 04:09:58;;;;;;;2.50;0.60;;;;;;;3.88;67.58;99788.02;111034;1247;21959;-75
2022/02/05 04:18:56;;;;;;;1.50;0.70;;;;;;;3.85;67.57;99816.52;110690;1253;23582;-76
2022/02/05 04:21:27;;;;;;;1.90;1.10;;;;;;;3.82;67.55;99823.41;110485;1254;21972;-76
2022/02/05 04:24:03;;;;;;;2.70;1.30;;;;;;;3.80;67.66;99822.17;110623;1254;21962;-75
2022/02/05 04:26:38;;;;;;;3.90;1.80;;;;;;;3.77;67.73;99825.04;110737;1254;22038;-75
2022/02/05 04:29:12;;;;;;;3.60;1.50;;;;;;;3.75;67.74;99831.96;110075;1260;21984;-75
2022/02/05 04:31:41;;;;;;;4.00;1.40;;;;;;;3.75;67.76;99836.50;110328;1258;23599;-75
2022/02/05 04:34:14;;;;;;;2.90;1.20;;;;;;;3.76;67.72;99846.41;109999;1259;22087;-76
2022/02/05 04:36:43;;;;;;;1.40;1.00;;;;;;;3.74;67.87;99855.38;109900;1260;23197;-76
2022/02/05 04:39:16;;;;;;;1.90;0.90;;;;;;;3.75;67.87;99856.58;110213;1260;22033;-76
2022/02/05 04:41:58;;;;;;;3.30;1.30;;;;;;;3.75;67.86;99859.67;109842;1260;22252;-75
2022/02/05 04:45:05;;;;;;;2.20;1.00;;;;;;;3.73;67.90;99863.00;110130;1260;21981;-75
2022/02/05 04:47:58;;;;;;;3.60;1.80;;;;;;;3.71;67.96;99866.29;110282;1256;22741;-76
2022/02/05 04:56:37;;;;;;;3.50;1.50;;;;;;;3.68;68.03;99878.96;111106;1247;22381;-75
2022/02/05 05:15:38;;;;;;;2.80;1.30;;;;;;;3.66;68.72;99905.04;111265;1247;24281;-74
2022/02/05 05:21:17;;;;;;;1.80;1.30;;;;;;;3.65;68.96;99910.02;110617;1254;21975;-79
2022/02/05 05:24:03;;;;;;;2.10;1.00;;;;;;;3.68;69.31;99917.09;110560;1253;21980;-76
2022/02/05 05:27:01;;;;;;;;;;;;;;;;;;;;;
2022/02/05 05:29:57;;;;;;;2.90;1.50;;;;;;;3.73;69.10;99923.78;110532;1253;21983;-76
2022/02/05 05:32:47;;;;;;;4.70;1.40;;;;;;;3.72;69.04;99929.48;110716;1253;21998;-75
2022/02/05 05:35:34;;;;;;;2.70;1.50;;;;;;;3.71;69.04;99937.20;110254;1259;21990;-75
2022/02/05 05:38:37;;;;;;;3.20;1.30;;;;;;;3.66;69.02;99946.16;110560;1253;21983;-76
2022/02/05 05:41:34;;;;;;;3.90;1.20;;;;;;;3.64;69.05;99956.44;110528;1254;23042;-75
2022/02/05 05:47:13;;;;;;;4.10;1.80;;;;;;;3.68;68.93;99965.19;110110;1259;22092;-76
2022/02/05 05:50:47;;;;;;;3.70;1.20;;;;;;;3.69;68.90;99971.35;109992;1260;22446;-76
2022/02/05 05:53:15;;;;;;;4.30;1.90;;;;;;;3.72;68.80;99977.38;110027;1255;22774;-76
2022/02/05 05:56:14;;;;;;;3.80;1.50;;;;;;;3.74;68.77;99984.65;110535;1253;22421;-76
2022/02/05 05:58:58;;;;;;;4.50;1.60;;;;;;;3.77;68.69;99984.80;110573;1253;21985;-78
2022/02/05 06:01:31;;;;;;;3.70;1.80;;;;;;;3.78;68.59;99993.70;110515;1253;21959;-75
2022/02/05 06:04:12;;;;;;;3.00;1.50;;;;;;;3.79;68.61;99991.41;110569;1250;23828;-75
2022/02/05 06:06:57;;;;;;;4.50;1.30;;;;;;;3.81;68.70;99989.48;111105;1247;21917;-74
2022/02/05 06:09:43;;;;;;;5.40;1.70;;;;;;;3.78;68.62;99988.15;110958;1247;21956;-76
2022/02/05 06:12:17;;;;;;;4.50;1.60;;;;;;;3.74;68.73;99982.89;111049;1247;21953;-75
2022/02/05 06:15:02;;;;;;;;;;;;;;;;;;;;;
2022/02/05 06:17:58;;;;;;;;;;;;;;;3.67;68.80;99997.65;111093;1247;22044;-77
2022/02/05 06:20:39;;;;;;;4.20;2.00;;;;;;;3.55;68.99;99999.18;110686;1253;23795;-75
2022/02/05 06:23:08;;;;;;;3.50;1.70;;;;;;;3.51;69.12;100000.02;110576;1253;21958;-76
2022/02/05 06:25:49;;;;;;;4.70;2.60;;;;;;;3.55;69.26;100007.54;110739;1253;22902;-76
2022/02/05 06:28:27;;;;;;;7.30;2.90;;;;;;;3.58;69.14;100009.01;110578;1253;22031;-75
2022/02/05 06:31:17;;;;;;;7.10;3.00;;;;;;;3.59;69.21;100018.23;110698;1254;22898;-74
2022/02/05 06:33:49;;;;;;;13.00;3.70;;;;;;;3.59;69.20;100023.64;110710;1253;23518;-75
2022/02/05 06:36:19;;;;;;;6.20;3.30;;;;;;;3.59;69.28;100022.73;110583;1253;21963;-76
2022/02/05 06:38:53;;;;;;;7.00;3.10;;;;;;;3.62;69.35;100023.53;110778;1248;24634;-75
2022/02/05 06:41:25;;;;;;;8.80;4.50;;;;;;;3.62;69.37;100023.67;111036;1247;23729;-75
2022/02/05 06:43:55;;;;;;;9.60;5.00;;;;;;;3.66;69.50;100022.11;111092;1247;23600;-74
2022/02/05 06:46:25;;;;;;;11.00;5.20;;;;;;;3.68;69.49;100026.45;110907;1247;23097;-75
2022/02/05 06:49:03;;;;;;;15.10;5.80;;;;;;;3.70;69.53;100024.23;111006;1250;23053;-75
2022/02/05 06:51:46;;;;;;;8.70;5.20;;;;;;;3.70;69.55;100027.83;110558;1253;22086;-75
2022/02/05 06:54:22;;;;;;;10.40;5.20;;;;;;;3.72;69.62;100028.89;110571;1253;23845;-75
2022/02/05 06:57:16;;;;;;;14.30;6.50;;;;;;;3.72;69.68;100033.23;110492;1254;21961;-75
2022/02/05 06:59:52;;;;;;;10.00;4.80;;;;;;;3.72;69.73;100034.14;110339;1254;22748;-75
2022/02/05 07:02:26;;;;;;;9.30;5.80;;;;;;;3.72;69.90;100042.62;110536;1254;23088;-76
2022/02/05 07:05:01;;;;;;;12.10;5.80;;;;;;;3.72;69.96;100047.21;110547;1254;22025;-76
2022/02/05 07:07:31;;;;;;;;;;;;;;;3.72;70.00;100053.64;110479;1254;22014;-76
2022/02/05 07:10:06;;;;;;;10.70;5.00;;;;;;;3.69;70.14;100053.73;110735;1250;22518;-75
2022/02/05 07:16:50;;;;;;;;;;;;;;;;;;;;;
2022/02/05 07:20:38;;;;;;;10.20;5.30;;;;;;;3.66;70.26;100058.02;109813;1260;23608;-76
2022/02/05 07:30:33;;;;;;;;;;;;;;;;;;;;;
2022/02/05 07:33:10;;;;;;;17.60;11.20;;;;;;;3.75;70.28;100059.15;108944;1270;21962;-75
2022/02/05 07:36:15;;;;;;;16.50;11.90;;;;;;;3.78;70.26;100057.84;108966;1270;23585;-76
2022/02/05 07:38:54;;;;;;;15.70;7.70;;;;;;;3.80;70.22;100058.38;108814;1270;23794;-76
2022/02/05 07:41:38;;;;;;;15.10;8.40;;;;;;;3.81;70.18;100056.03;108554;1273;22911;-76
2022/02/05 07:44:23;;;;;;;17.10;8.80;;;;;;;3.84;70.34;100067.60;108739;1273;23063;-76
2022/02/05 07:47:05;;;;;;;11.30;8.30;;;;;;;3.91;70.37;100075.74;108706;1273;21999;-77
2022/02/05 07:50:09;;;;;;;;;;;;;;;;;;;;;
2022/02/05 07:52:46;;;;;;;10.80;6.30;;;;;;;3.95;70.16;100074.33;108848;1264;21974;-75
2022/02/05 07:55:43;;;;;;;16.20;9.60;;;;;;;3.96;70.07;100074.39;109346;1264;23614;-79
2022/02/05 07:58:17;;;;;;;16.90;10.00;;;;;;;4.04;70.53;100082.13;110477;1256;23716;-80
2022/02/05 08:00:54;;;;;;;12.20;7.70;;;;;;;4.24;70.83;100090.47;111127;1250;21977;-78
2022/02/05 08:03:49;;;;;;;8.70;6.50;;;;;;;4.43;70.55;100090.05;111298;1250;23007;-79
2022/02/05 08:07:01;;;;;;;12.70;6.10;;;;;;;4.58;70.24;100090.98;110399;1254;21987;-80
2022/02/05 08:10:00;;;;;;;15.80;6.90;;;;;;;4.74;70.07;100095.35;109780;1262;21985;-80
2022/02/05 08:12:51;;;;;;;25.20;11.20;;;;;;;4.88;69.94;100094.70;110007;1262;22124;-81
2022/02/05 08:15:51;;;;;;;20.10;9.00;;;;;;;5.04;69.63;100098.71;110242;1260;21996;-82
2022/02/05 08:18:38;;;;;;;15.50;8.20;;;;;;;5.19;69.17;100105.95;109775;1267;21997;-82
2022/02/05 08:21:21;;;;;;;12.40;6.30;;;;;;;5.29;68.78;100107.77;109436;1267;22710;-81
2022/02/05 08:23:53;;;;;;;;;;;;;;;5.40;68.37;100106.09;108980;1267;22372;-81
2022/02/05 08:26:35;;;;;;;11.80;5.30;;;;;;;5.39;68.01;100111.27;109515;1267;22055;-81
2022/02/05 08:30:08;;;;;;;11.90;5.70;;;;;;;5.37;67.46;100113.15;109407;1267;23847;-80
2022/02/05 08:33:19;;;;;;;10.80;5.90;;;;;;;5.33;66.97;100121.28;109514;1267;22898;-82
2022/02/05 08:36:22;;;;;;;13.00;5.20;;;;;;;5.28;66.85;100121.90;109344;1264;23589;-77
2022/02/05 08:39:11;;;;;;;16.50;6.50;;;;;;;5.18;66.46;100128.19;108833;1270;22048;-77
2022/02/05 08:41:57;;;;;;;14.70;8.00;;;;;;;5.02;66.40;100127.86;108828;1270;23048;-78
2022/02/05 08:44:31;;;;;;;11.20;6.20;;;;;;;4.90;66.59;100132.95;108816;1270;22985;-77
2022/02/05 08:47:31;;;;;;;12.40;6.60;;;;;;;4.79;66.89;100130.64;109037;1267;21994;-77
2022/02/05 08:50:12;;;;;;;12.60;6.40;;;;;;;4.69;67.17;100126.24;109397;1263;23733;-76
2022/02/05 08:54:01;;;;;;;13.80;7.40;;;;;;;4.63;67.38;100124.70;109541;1260;22015;-77
2022/02/05 08:56:51;;;;;;;11.00;6.50;;;;;;;4.58;67.76;100121.85;110088;1253;23577;-76
2022/02/05 08:59:58;;;;;;;12.10;7.50;;;;;;;4.54;67.97;100124.66;109979;1257;23692;-77
2022/02/05 09:05:33;;;;;;;17.00;7.60;;;;;;;4.54;68.35;100122.34;109538;1264;22183;-77
2022/02/05 09:08:21;;;;;;;18.60;9.90;;;;;;;4.57;68.42;100123.45;109435;1262;21972;-76
2022/02/05 09:11:28;;;;;;;20.70;8.80;;;;;;;4.61;68.50;100120.71;109805;1263;22042;-76
2022/02/05 09:14:27;;;;;;;;;;;;;;;;;;;;;
2022/02/05 09:17:13;;;;;;;15.10;7.50;;;;;;;4.69;68.71;100122.55;109428;1262;21989;-76
2022/02/05 09:20:16;;;;;;;12.70;7.90;;;;;;;4.72;68.63;100122.82;109669;1257;22023;-76
2022/02/05 09:24:05;;;;;;;;;;;;;;;;;;;;;
2022/02/05 09:27:10;;;;;;;;;;;;;;;4.78;68.87;100121.31;110342;1257;21955;-76
2022/02/05 09:30:27;;;;;;;14.20;6.60;;;;;;;4.84;68.86;100128.23;110295;1258;21983;-76
2022/02/05 09:33:11;;;;;;;11.40;6.20;;;;;;;4.96;68.59;100133.31;110428;1254;23032;-79
2022/02/05 09:36:05;;;;;;;15.20;7.70;;;;;;;5.03;68.07;100134.94;110556;1254;23664;-77
2022/02/05 09:38:58;;;;;;;11.70;6.80;;;;;;;5.06;67.74;100134.29;109883;1260;22238;-76
2022/02/05 09:41:45;;;;;;;20.00;10.60;;;;;;;5.08;67.56;100136.38;109843;1260;23732;-78
2022/02/05 09:44:35;;;;;;;15.80;9.20;;;;;;;5.14;67.57;100140.40;109860;1260;22169;-77
2022/02/05 09:47:37;;;;;;;14.00;9.70;;;;;;;5.18;67.25;100141.80;109855;1259;22443;-78
2022/02/05 09:50:13;;;;;;;12.10;7.00;;;;;;;5.17;66.97;100145.83;109975;1260;23596;-76
2022/02/05 09:53:04;;;;;;;;;;;;;;;;;;;;;
2022/02/05 09:55:40;;;;;;;11.20;6.50;;;;;;;5.24;66.77;100150.16;110434;1253;21962;-77
2022/02/05 09:58:20;;;;;;;10.50;6.30;;;;;;;5.26;66.45;100152.42;110619;1252;22460;-77
2022/02/05 10:01:16;;;;;;;11.50;5.40;;;;;;;5.28;66.20;100156.61;110225;1259;22088;-76
2022/02/05 10:03:57;;;;;;;10.90;6.80;;;;;;;5.29;66.11;100154.09;110377;1254;21963;-77
2022/02/05 10:06:46;;;;;;;11.70;7.10;;;;;;;5.35;66.24;100158.25;110323;1256;21972;-77
2022/02/05 10:09:32;;;;;;;14.90;8.10;;;;;;;5.40;66.02;100154.94;109696;1260;22006;-76
2022/02/05 10:12:14;;;;;;;13.40;7.00;;;;;;;5.40;65.70;100150.95;109692;1260;22026;-76
2022/02/05 10:14:55;;;;;;;12.50;5.90;;;;;;;5.38;65.48;100151.34;109660;1260;23042;-76
2022/02/05 10:17:51;;;;;;;;;;;;;;;;;;;;;
2022/02/05 10:20:25;;;;;;;12.90;7.30;;;;;;;5.46;65.52;100153.45;110332;1256;21966;-77
2022/02/05 10:23:18;;;;;;;18.10;6.90;;;;;;;5.59;65.71;100154.70;110104;1259;22005;-77
2022/02/05 10:26:08;;;;;;;;;;;;;;;;;;;;;
2022/02/05 10:29:05;;;;;;;11.90;5.80;;;;;;;5.99;65.53;100156.73;110257;1257;21983;-77
2022/02/05 10:32:16;;;;;;;13.50;6.60;;;;;;;6.11;64.56;100159.16;110238;1257;23823;-76
2022/02/05 10:34:59;;;;;;;12.60;7.20;;;;;;;6.15;64.12;100159.96;110045;1258;22145;-76
2022/02/05 10:37:42;;;;;;;14.60;6.90;;;;;;;6.31;64.24;100155.34;110232;1258;23309;-76
2022/02/05 10:40:21;;;;;;;14.10;7.70;;;;;;;6.60;64.50;100152.55;109874;1259;22903;-76
2022/02/05 10:43:16;;;;;;;8.60;5.30;;;;;;;6.85;63.35;100161.91;110540;1253;22966;-77
2022/02/05 10:45:57;;;;;;;8.20;4.60;;;;;;;6.85;61.97;100161.02;110746;1253;22421;-76
2022/02/05 10:48:34;;;;;;;9.90;4.60;;;;;;;6.69;61.10;100161.56;110938;1248;21999;-77
2022/02/05 10:51:12;;;;;;;10.90;6.10;;;;;;;6.54;61.23;100162.22;111206;1247;22723;-76
2022/02/05 10:54:07;;;;;;;13.40;6.80;;;;;;;6.41;61.13;100163.17;110909;1247;21966;-76
2022/02/05 10:56:38;;;;;;;11.10;6.10;;;;;;;6.27;61.00;100158.88;110805;1248;21988;-76
2022/02/05 10:59:17;;;;;;;10.60;5.40;;;;;;;6.16;61.16;100158.14;110681;1253;23699;-76
2022/02/05 11:05:31;;;;;;;8.90;5.70;;;;;;;6.00;61.32;100158.06;109804;1260;21972;-77
2022/02/05 11:08:14;;;;;;;11.70;6.20;;;;;;;5.93;61.26;100157.83;109040;1267;22131;-76
2022/02/05 11:19:15;;;;;;;12.80;7.90;;;;;;;5.79;61.38;100167.52;109936;1256;23080;-75
2022/02/05 11:21:56;;;;;;;11.10;6.50;;;;;;;5.80;61.37;100171.64;110130;1253;21981;-76
2022/02/05 11:24:32;;;;;;;11.70;8.20;;;;;;;5.76;61.33;100180.36;110344;1256;22059;-77
2022/02/05 11:27:18;;;;;;;8.80;4.40;;;;;;;5.69;61.16;100196.41;110703;1250;21991;-77
2022/02/05 11:29:57;;;;;;;8.50;4.30;;;;;;;5.54;61.05;100202.98;110319;1256;21974;-76
2022/02/05 11:32:34;;;;;;;7.80;4.50;;;;;;;5.32;61.20;100207.28;110446;1256;22283;-76
2022/02/05 11:35:10;;;;;;;10.60;7.20;;;;;;;5.15;61.83;100204.73;110221;1256;22089;-76
2022/02/05 11:37:56;;;;;;;17.90;12.50;;;;;;;5.05;62.62;100199.68;110459;1256;23732;-76
2022/02/05 11:40:48;;;;;;;12.90;6.90;;;;;;;5.00;63.33;100201.00;110475;1256;23352;-75
2022/02/05 11:43:27;;;;;;;14.80;7.30;;;;;;;5.05;64.36;100204.81;110363;1256;21976;-75
2022/02/05 11:46:21;;;;;;;12.10;8.10;;;;;;;5.19;65.00;100205.42;110473;1256;22071;-75
2022/02/05 11:48:59;;;;;;;9.90;7.10;;;;;;;5.30;65.11;100207.25;110940;1247;21971;-77
2022/02/05 11:51:43;;;;;;;11.60;5.40;;;;;;;5.34;64.91;100215.30;110642;1250;23706;-77
2022/02/05 11:54:16;;;;;;;13.20;8.40;;;;;;;5.28;64.79;100217.59;110792;1249;22054;-76
2022/02/05 11:57:00;;;;;;;10.50;5.70;;;;;;;5.22;64.74;100220.52;110928;1250;23722;-75
2022/02/05 11:59:55;;;;;;;13.70;6.10;;;;;;;5.12;64.77;100211.81;110839;1250;21979;-76
2022/02/05 12:02:46;;;;;;;11.10;6.30;;;;;;;5.00;64.99;100208.73;111035;1250;21923;-77
2022/02/05 12:05:28;;;;;;;12.50;7.30;;;;;;;4.94;65.49;100210.44;111091;1247;23777;-78
2022/02/05 12:08:12;;;;;;;10.90;8.00;;;;;;;4.97;65.77;100209.87;111039;1247;23745;-76
2022/02/05 12:10:48;;;;;;;11.20;6.20;;;;;;;4.94;65.65;100213.36;111332;1247;22065;-78
2022/02/05 12:13:37;;;;;;;12.80;6.50;;;;;;;4.92;65.77;100213.77;111043;1247;21976;-76
2022/02/05 12:16:37;;;;;;;9.30;5.40;;;;;;;4.91;65.96;100216.96;111068;1247;23024;-77
2022/02/05 12:19:16;;;;;;;11.10;5.80;;;;;;;4.96;66.31;100214.86;111080;1247;22262;-77
2022/02/05 12:22:27;;;;;;;6.70;3.40;;;;;;;4.97;65.92;100218.34;111073;1247;23580;-76
2022/02/05 12:25:17;;;;;;;8.90;3.60;;;;;;;4.98;65.60;100225.49;111130;1247;23626;-76
2022/02/05 12:27:49;;;;;;;7.00;4.00;;;;;;;4.99;65.10;100221.04;111057;1247;21977;-77
2022/02/05 12:30:40;;;;;;;9.40;5.50;;;;;;;5.00;64.88;100219.33;111039;1247;23669;-76
2022/02/05 12:33:21;;;;;;;9.40;3.80;;;;;;;5.04;64.34;100218.45;110939;1248;21963;-77
2022/02/05 12:36:29;;;;;;;7.60;4.80;;;;;;;5.06;64.01;100226.33;110854;1250;23117;-80
2022/02/05 12:39:22;;;;;;;8.50;5.50;;;;;;;5.11;64.04;100225.73;110736;1250;23586;-78
2022/02/05 12:42:16;;;;;;;8.00;4.10;;;;;;;5.23;64.07;100232.02;110855;1250;23672;-78
2022/02/05 12:45:45;;;;;;;9.20;4.70;;;;;;;5.33;63.94;100228.82;110745;1250;21965;-78
2022/02/05 12:48:28;;;;;;;8.50;5.20;;;;;;;5.42;63.53;100229.23;110926;1250;22015;-79
2022/02/05 12:51:13;;;;;;;7.10;3.90;;;;;;;5.49;63.26;100232.79;111364;1246;21921;-79
2022/02/05 12:53:52;;;;;;;8.90;4.30;;;;;;;5.59;63.14;100226.27;110912;1249;23023;-79
2022/02/05 12:56:37;;;;;;;8.30;4.20;;;;;;;5.68;63.02;100229.65;111177;1250;23015;-80
2022/02/05 12:59:16;;;;;;;7.60;4.90;;;;;;;5.79;62.75;100232.34;110612;1256;23593;-79
2022/02/05 13:02:06;;;;;;;8.90;4.90;;;;;;;5.84;62.38;100234.52;110067;1260;23725;-79
2022/02/05 13:04:47;;;;;;;8.00;4.00;;;;;;;5.89;62.22;100238.27;109293;1267;23134;-78
2022/02/05 13:07:41;;;;;;;8.70;3.40;;;;;;;5.92;61.91;100243.04;109141;1267;21967;-79
2022/02/05 13:10:48;;;;;;;8.30;3.90;;;;;;;5.96;61.79;100251.67;109446;1267;22091;-79
2022/02/05 13:13:25;;;;;;;6.60;3.50;;;;;;;5.96;61.50;100255.80;109009;1267;21966;-79
2022/02/05 13:16:15;;;;;;;6.80;4.20;;;;;;;5.95;61.22;100259.20;109117;1267;22000;-80
2022/02/05 13:19:15;;;;;;;7.60;3.50;;;;;;;5.95;61.03;100263.76;110192;1259;23041;-80
2022/02/05 13:27:47;;;;;;;8.80;3.80;;;;;;;5.74;59.96;100267.60;110421;1256;23036;-80
2022/02/05 13:36:15;;;;;;;7.50;3.80;;;;;;;5.54;59.75;100283.20;110753;1250;23058;-80
2022/02/05 13:42:00;;;;;;;11.30;3.90;;;;;;;5.39;59.62;100283.84;110796;1250;21989;-80
2022/02/05 13:47:51;;;;;;;14.80;5.90;;;;;;;5.32;59.72;100287.39;110921;1250;23742;-78
2022/02/05 13:50:37;;;;;;;12.40;6.40;;;;;;;5.28;59.76;100297.16;111003;1250;21993;-80
2022/02/05 13:53:47;;;;;;;13.00;5.80;;;;;;;5.25;59.86;100305.10;110668;1251;23079;-80
2022/02/05 13:56:34;;;;;;;12.80;6.60;;;;;;;5.21;59.93;100311.08;111091;1250;21978;-79
2022/02/05 13:59:19;;;;;;;8.20;5.20;;;;;;;5.17;60.24;100308.23;111036;1250;21969;-80
2022/02/05 14:02:18;;;;;;;7.60;3.70;;;;;;;5.18;60.61;100309.91;110901;1250;22820;-80
2022/02/05 14:05:08;;;;;;;8.60;4.90;;;;;;;5.18;60.71;100306.45;110866;1250;22030;-78
2022/02/05 14:07:46;;;;;;;8.70;4.80;;;;;;;5.18;60.94;100311.13;110679;1254;21965;-80
2022/02/05 14:10:21;;;;;;;10.60;5.20;;;;;;;5.17;61.02;100322.22;110510;1255;21979;-79
2022/02/05 14:13:01;;;;;;;9.40;3.50;;;;;;;5.15;61.15;100325.70;110324;1256;22351;-80
2022/02/05 14:15:59;;;;;;;9.40;5.10;;;;;;;5.13;61.19;100330.29;110795;1254;21976;-81
2022/02/05 14:18:57;;;;;;;8.40;4.30;;;;;;;5.10;61.19;100331.96;110780;1256;21975;-79
2022/02/05 14:21:39;;;;;;;11.80;4.70;;;;;;;5.08;61.41;100336.25;110751;1256;22374;-76
2022/02/05 14:24:40;;;;;;;;;;;;;;;;;;;;;
2022/02/05 14:27:16;;;;;;;10.90;5.30;;;;;;;5.06;61.41;100340.43;110925;1250;23602;-77
2022/02/05 14:32:30;;;;;;;9.70;5.60;;;;;;;5.05;61.69;100340.52;110514;1253;22115;-77
2022/02/05 14:35:28;;;;;;;12.80;7.20;;;;;;;5.04;61.81;100339.91;110389;1253;21975;-76
2022/02/05 14:40:55;;;;;;;14.20;7.90;;;;;;;5.00;62.04;100351.83;110604;1253;21988;-77
2022/02/05 14:43:25;;;;;;;17.00;9.40;;;;;;;4.98;62.13;100350.44;110557;1254;22008;-76
2022/02/05 14:45:59;;;;;;;12.80;6.80;;;;;;;4.94;61.94;100356.84;110277;1256;22150;-76
2022/02/05 14:48:32;;;;;;;15.00;6.50;;;;;;;4.90;61.96;100361.61;111148;1249;22171;-76
2022/02/05 14:51:07;;;;;;;12.90;5.30;;;;;;;4.87;61.95;100364.48;110430;1254;21963;-77
2022/02/05 14:53:54;;;;;;;13.30;7.10;;;;;;;4.84;61.86;100367.67;110530;1254;21973;-76
2022/02/05 14:56:41;;;;;;;10.00;5.90;;;;;;;4.83;61.78;100370.52;110116;1259;24401;-76
2022/02/05 14:59:42;;;;;;;14.70;6.90;;;;;;;4.87;61.87;100378.40;110012;1259;22960;-76
2022/02/05 15:02:37;;;;;;;13.50;6.70;;;;;;;4.90;61.89;100380.58;110150;1259;22222;-76
2022/02/05 15:06:04;;;;;;;;;;;;;;;;;;;;;
2022/02/05 15:08:57;;;;;;;8.80;5.50;;;;;;;4.81;61.50;100385.94;110109;1258;24301;-76
2022/02/05 15:11:35;;;;;;;12.50;7.00;;;;;;;4.74;61.60;100386.73;110085;1257;21977;-76
2022/02/05 15:14:17;;;;;;;16.10;7.00;;;;;;;4.67;61.57;100389.54;110691;1247;22092;-77
2022/02/05 15:17:05;;;;;;;13.30;5.80;;;;;;;4.64;61.68;100396.60;111049;1250;21961;-77
2022/02/05 15:19:42;;;;;;;7.30;4.30;;;;;;;4.63;61.80;100404.17;110454;1256;21955;-75
2022/02/05 15:22:19;;;;;;;8.70;5.80;;;;;;;4.64;61.77;100407.54;110103;1262;22090;-75
2022/02/05 15:24:51;;;;;;;13.50;6.20;;;;;;;4.64;61.72;100412.25;110165;1260;22756;-75
2022/02/05 15:27:23;;;;;;;12.80;5.80;;;;;;;4.67;61.74;100417.62;110123;1259;23008;-75
2022/02/05 15:29:55;;;;;;;9.80;5.60;;;;;;;4.69;61.72;100416.89;109971;1261;23758;-76
2022/02/05 15:32:26;;;;;;;9.80;5.80;;;;;;;4.72;61.61;100415.77;110115;1259;22026;-76
2022/02/05 15:34:57;;;;;;;15.30;7.10;;;;;;;4.74;61.66;100414.95;110085;1262;21994;-76
2022/02/05 15:37:30;;;;;;;14.10;7.20;;;;;;;4.73;61.62;100421.77;110279;1256;21948;-75
2022/02/05 15:40:18;;;;;;;10.70;6.20;;;;;;;4.72;61.55;100425.92;109876;1256;21967;-76
2022/02/05 15:45:44;;;;;;;14.90;6.50;;;;;;;4.64;61.61;100430.92;110518;1256;23676;-76
2022/02/05 15:48:17;;;;;;;14.80;6.80;;;;;;;4.60;61.54;100435.80;110496;1256;22046;-75
2022/02/05 15:50:49;;;;;;;30.10;8.80;;;;;;;4.54;61.53;100438.21;110511;1255;21971;-75
2022/02/05 15:53:25;;;;;;;18.50;9.40;;;;;;;4.49;61.45;100445.08;109657;1261;22070;-76
2022/02/05 15:55:56;;;;;;;13.30;9.10;;;;;;;4.44;61.46;100448.45;109680;1261;22055;-75
2022/02/05 15:58:35;;;;;;;18.00;7.50;;;;;;;4.38;61.46;100448.58;109778;1256;22075;-76
2022/02/05 16:01:07;;;;;;;15.80;7.40;;;;;;;4.32;61.53;100448.39;110359;1256;22796;-75
2022/02/05 16:03:42;;;;;;;14.90;7.10;;;;;;;4.27;61.56;100448.65;110197;1256;23570;-75